Harbor View, Ohio
Current Conditions -  °F | °C
As of 12:53 PM on Monday 22 Dec 2014 (Local Time) from KTDZ Reporting Station
Haze Haze  
Wind Chill: 34°   Ceiling: 4600
Heat Index: 38°   Visibility: 6mi
Dew Point: 29°   Wind: 5mph
Humidity: 70%   Direction: 80°E
Pressure: 29.99"   Gusts: NA
Location:  41.69°N, 83.44°W
Report Text: KTDZ 221753Z AUTO 08004KT 6SM HZ BKN046 03/M02 A2999 RMK AO2 SLP161 T00331017 10033 21044 58030 TSNO
Loading
Personal Weather Stations






























Interactive Weather Map New forecast layout! Learn more

10-Day Weather Forecast

Advertisements
Track Severe Weather on mobile